x

Buoy I01 - Eastern Maine Shelf (44034) Wave Buoy

12:04pm - Wed 28th Sep 2016 All times are EDT. -4 hours from GMT.

  • Sig Wave height 5.2ft
  • Peak Period 6s
  • Wind
    20mph, 25mph gusts
  • Sea Temp 55°f
  • 空気 Temp 54°f
  • Sea Pressure 1025.9mb
  • Buoy I01 - Eastern Maine Shelf
  • Buoy I01 - Eastern Maine Shelf

More Historic Weather Station data

Upgrade to MSW Pro to gain access to the past 30 days of data for over 8000 Wavebouys and Weather Stations around the globe.

Join Pro

Comparision Forecast

View Surf forecast
   
Wed 09/28 12:04pm 5ft 6s 20 25 mph 1025.9mb 55f 54f
11:04am 5ft 6s 20 25 mph 1025.8mb 54f 53f
10:04am 5ft 8s 18 25 mph 1025.6mb 54f 53f
9:04am 5ft 6s 20 22 mph 1025mb 54f 52f
8:04am 5ft 6s 20 27 mph 1024.5mb 54f 51f
7:04am 4.5ft 8s 20 27 mph 1023.8mb 54f 52f
6:04am 5ft 8s 20 22 mph 1022.6mb 54f 52f
5:04am 5ft 8s  -  mph - 54f -
4:04am 4ft 5s 18 22 mph 1021.4mb 54f 53f
3:04am 3.5ft 5s 18 22 mph 1020.9mb 54f 53f
2:04am 4ft 6s 16 20 mph 1020.5mb 55f 54f
1:04am 4ft 4s 18 22 mph 1020.1mb 55f 54f
12:04am 3.5ft 6s 18 22 mph 1019.4mb 55f 54f
Tue 09/27 11:04pm 4ft 6s 18 20 mph 1018.4mb 55f 55f
10:04pm 4.5ft 6s 20 25 mph 1017.5mb 55f 55f
9:04pm 4.5ft 6s 18 22 mph 1016.4mb 56f 55f
8:04pm 3.5ft 6s 20 22 mph 1015mb 56f 56f
7:04pm 2.5ft 5s 13 18 mph 1014.6mb 56f 56f
6:04pm 2.5ft 5s 11 13 mph 1014.2mb 56f 57f
5:04pm 2.5ft 6s 7 9 mph 1013.2mb 56f 57f
4:04pm 3ft 6s 7 9 mph 1012mb 56f 57f
3:04pm 3ft 6s 4
mph
1012mb 56f 57f
2:04pm 3.5ft 6s 4
mph
1011.8mb 56f 56f
1:04pm 4ft 6s 4
mph
1011.9mb 55f 56f
12:04pm 3.5ft 6s 2
mph
1012.5mb 55f 56f
11:04am 4ft 6s 4
mph
1012.7mb 55f 56f
10:04am 3.5ft 5s 7
mph
1012.8mb 55f 56f
9:04am 3.5ft 5s 11 13 mph 1013mb 55f 56f
8:04am 3.5ft 5s 18 22 mph 1012.8mb 55f 57f
7:04am 3.5ft 5s 16 18 mph 1012.7mb 55f 57f
6:04am 2.5ft 4s 16 18 mph 1012.9mb 55f 57f
5:04am 2.5ft 4s 13 16 mph 1013.4mb 55f 57f
4:04am 2.5ft 4s 11 13 mph 1014.1mb 55f 57f
3:04am 2.5ft 4s 13 16 mph 1014.7mb 55f 57f
2:04am 2.5ft 4s 13 16 mph 1015.5mb 55f 56f
1:04am 2ft 4s 11 13 mph 1016.2mb 55f 56f
12:04am 2.5ft 4s 13 16 mph 1016.8mb 55f 55f
Mon 09/26 11:04pm 2.5ft 4s 13 16 mph 1017.1mb 55f 55f
10:04pm 2.5ft 5s 16 18 mph 1017.6mb 55f 55f
9:04pm 3ft 5s 16 18 mph 1017.9mb 55f 55f
8:04pm 2.5ft 4s 16 20 mph 1018.1mb 55f 55f
7:04pm 2.5ft 4s 18 20 mph 1018.3mb 55f 55f
6:04pm 2.5ft 3s 16 20 mph 1018.7mb 55f 55f
5:04pm 2ft 3s 18 22 mph 1018.5mb 56f 55f
4:04pm 1.6ft 3s 11 13 mph 1018.8mb 56f 56f
3:04pm 1.3ft 3s 11 13 mph 1019.5mb 56f 55f
2:04pm 1ft 3s 11 13 mph 1020mb 56f 54f
1:04pm 1ft 2s 9 11 mph 1020.8mb 55f 54f
12:04pm 1.3ft 3s 4 7 mph 1021.3mb 56f 54f
11:04am 1.3ft 3s 4 7 mph 1021.4mb 55f 53f
10:04am 1.6ft 3s 9
mph
1021.4mb 55f 51f
9:04am 1.6ft 2s 9 11 mph 1021.2mb 55f 51f
8:04am 2ft 3s 11 13 mph 1021.4mb 55f 51f
7:04am 2ft 3s 13 16 mph 1021.1mb 55f 51f
6:04am 2ft 3s 16 18 mph 1020.6mb 55f 50f
5:04am 2ft 3s 18 20 mph 1020.2mb 55f 51f
4:04am 2ft 3s 16 18 mph 1020.2mb 55f 51f
3:04am 2ft 3s 18 20 mph 1020.1mb 55f 51f
2:04am 2ft 3s 16 18 mph 1020.1mb 55f 52f
1:04am 1.6ft 3s 13 18 mph 1020.1mb 55f 52f
12:04am 2ft 3s 13 16 mph 1019.9mb 55f 53f
Sun 09/25 11:04pm 2ft 3s 16 18 mph 1019.7mb 55f 53f
10:04pm 2ft 3s 18 20 mph 1019.7mb 55f 54f
9:04pm 2.5ft 3s 18 20 mph 1019.3mb 55f 54f
8:04pm 2.5ft 3s 18 20 mph 1018.7mb 55f 54f
7:04pm 2ft 3s 16 18 mph 1017.8mb 55f 55f
6:04pm 2.5ft 3s 11 13 mph 1017.1mb 55f 54f
5:04pm 2ft 4s 13 18 mph 1016.3mb 55f 55f
4:04pm 2.5ft 3s 18 22 mph 1016.1mb 55f 55f
3:04pm 2.5ft 3s 16 18 mph 1016.1mb 55f 55f
2:04pm 2.5ft 3s 16 22 mph 1016mb 55f 54f
1:04pm 2.5ft 4s 18 22 mph 1016.4mb 55f 53f
12:04pm 2.5ft 3s 16 20 mph 1016.5mb 55f 53f
11:04am 2.5ft 3s 18 20 mph 1016.5mb 55f 52f
10:04am 2.5ft 3s 18 20 mph 1016.5mb 55f 51f
9:04am 2.5ft 4s 16 20 mph 1016.6mb 55f 50f
8:04am 2.5ft 3s 18 25 mph 1016.3mb 55f 49f
7:04am 2.5ft 3s 18 22 mph 1016.2mb 55f 49f
6:04am 2.5ft 3s 18 20 mph 1016.2mb 55f 49f
5:04am 2.5ft 3s 20 22 mph 1015.8mb 55f 50f
4:04am 2.5ft 4s 16 20 mph 1015.9mb 55f 50f
3:04am 2.5ft 4s 16 20 mph 1016.1mb 55f 50f
2:04am 2.5ft 4s 18 22 mph 1016.4mb 55f 51f
1:04am 2.5ft 4s 22 29 mph 1016.2mb 55f 52f
12:04am 2.5ft 4s 20 27 mph 1016.2mb 55f 53f
Sat 09/24 11:04pm 2ft 3s 18 22 mph 1015.9mb 55f 55f
10:04pm 1.3ft 3s 16 18 mph 1015.7mb 55f 56f
9:04pm 1.3ft 3s 13 18 mph 1015.4mb 55f 56f
8:04pm 1.3ft 3s 11 13 mph 1015.5mb 55f 57f
7:04pm 1.6ft 3s 9 13 mph 1015.2mb 55f 57f
6:04pm 2ft 3s 13 16 mph 1014.9mb 55f 58f